createdAt,value
2022-12-27T00:00:16.845Z,46.23
2022-12-27T00:03:19.880Z,51.88
2022-12-27T00:06:26.802Z,45.75
2022-12-27T00:09:29.336Z,42.28
2022-12-27T00:12:31.861Z,41.30
2022-12-27T00:15:35.611Z,38.13
2022-12-27T00:18:39.352Z,38.28
2022-12-27T00:21:41.842Z,32.17
2022-12-27T00:24:44.486Z,31.23
2022-12-27T00:27:47.008Z,32.25
2022-12-27T00:30:55.338Z,34.20
2022-12-27T00:34:01.294Z,35.03
2022-12-27T00:37:03.799Z,34.88
2022-12-27T00:40:07.086Z,36.22
2022-12-27T00:43:09.599Z,35.58
2022-12-27T00:46:12.593Z,35.50
2022-12-27T00:49:15.280Z,37.70
2022-12-27T00:52:17.704Z,37.78
2022-12-27T00:55:20.169Z,42.08
2022-12-27T00:58:22.607Z,43.95
2022-12-27T01:01:27.027Z,46.20
2022-12-27T01:04:30.773Z,47.50
2022-12-27T01:07:33.344Z,47.92
2022-12-27T01:10:40.981Z,52.90
2022-12-27T01:13:45.043Z,48.97
2022-12-27T01:16:47.573Z,50.93
2022-12-27T01:19:50.029Z,53.50
2022-12-27T01:22:54.590Z,51.83
2022-12-27T01:26:04.871Z,52.95
2022-12-27T01:29:07.354Z,50.60
2022-12-27T01:32:09.876Z,48.10
2022-12-27T01:35:12.337Z,46.55
2022-12-27T01:38:15.305Z,52.30
2022-12-27T01:41:40.756Z,50.88
2022-12-27T01:44:49.804Z,49.60
2022-12-27T01:48:30.736Z,50.27
2022-12-27T01:51:33.119Z,48.13
2022-12-27T01:54:35.899Z,47.47
2022-12-27T01:57:39.047Z,52.53
2022-12-27T02:00:46.717Z,51.17
2022-12-27T02:04:07.815Z,48.07
2022-12-27T02:07:10.429Z,53.00
2022-12-27T02:10:13.343Z,49.03
2022-12-27T02:13:16.830Z,46.63
2022-12-27T02:16:19.886Z,45.00
2022-12-27T02:19:28.611Z,41.77
2022-12-27T02:22:53.762Z,40.53
2022-12-27T02:25:58.931Z,37.35
2022-12-27T02:29:15.261Z,35.75
2022-12-27T02:32:43.514Z,35.17
2022-12-27T02:35:56.653Z,36.00
2022-12-27T02:39:01.760Z,33.72
2022-12-27T02:42:24.903Z,29.60
2022-12-27T02:45:49.835Z,33.25
2022-12-27T02:49:15.668Z,33.17
2022-12-27T02:52:55.329Z,28.10
2022-12-27T02:56:26.878Z,25.90
2022-12-27T03:00:09.120Z,27.85
2022-12-27T03:03:44.873Z,19.70
2022-12-27T03:07:13.681Z,26.93
2022-12-27T03:10:37.546Z,24.70
2022-12-27T03:14:05.945Z,25.48
2022-12-27T03:17:30.484Z,25.63
2022-12-27T03:20:53.649Z,24.67
2022-12-27T03:24:16.698Z,24.80
2022-12-27T03:27:28.448Z,23.83
2022-12-27T03:30:49.891Z,25.40
2022-12-27T03:34:04.487Z,22.25
2022-12-27T03:37:44.049Z,12.15
2022-12-27T03:41:06.468Z,9.83
2022-12-27T03:44:24.290Z,4.40
2022-12-27T03:47:53.633Z,3.25
2022-12-27T03:51:04.986Z,2.08
2022-12-27T03:54:17.091Z,1.92
2022-12-27T03:57:26.477Z,1.63
2022-12-27T04:00:30.073Z,3.40
2022-12-27T04:03:32.601Z,2.05
2022-12-27T04:06:35.558Z,1.50
2022-12-27T04:09:56.693Z,2.78
2022-12-27T04:13:17.475Z,1.17
2022-12-27T04:16:38.776Z,1.43
2022-12-27T04:19:59.863Z,1.25
2022-12-27T04:23:21.221Z,1.17
2022-12-27T04:26:42.341Z,1.45
2022-12-27T04:30:03.725Z,2.00
2022-12-27T04:33:24.939Z,2.13
2022-12-27T04:36:27.509Z,1.88
2022-12-27T04:39:29.971Z,2.00
2022-12-27T04:42:51.399Z,1.42
2022-12-27T04:46:13.809Z,1.47
2022-12-27T04:49:41.042Z,1.77
2022-12-27T04:53:02.418Z,1.33
2022-12-27T04:56:05.876Z,1.35
2022-12-27T04:59:27.527Z,1.30
2022-12-27T05:02:30.011Z,1.47
2022-12-27T05:05:34.083Z,1.30
2022-12-27T05:08:56.049Z,1.70
2022-12-27T05:12:17.387Z,1.67
2022-12-27T05:15:20.466Z,1.60
2022-12-27T05:18:23.676Z,1.90
2022-12-27T05:21:26.371Z,1.53
2022-12-27T05:24:47.381Z,1.67
2022-12-27T05:27:49.923Z,1.27
2022-12-27T05:30:52.305Z,2.83
2022-12-27T05:33:55.019Z,2.03
2022-12-27T05:36:57.436Z,1.80
2022-12-27T05:40:00.184Z,1.95
2022-12-27T05:43:03.720Z,1.45
2022-12-27T05:46:15.402Z,1.52
2022-12-27T05:49:18.205Z,1.80
2022-12-27T05:52:20.728Z,2.83
2022-12-27T05:55:23.255Z,1.70
2022-12-27T05:58:26.268Z,2.05
2022-12-27T06:01:29.014Z,2.40
2022-12-27T06:04:31.565Z,1.80
2022-12-27T06:07:35.877Z,1.60
2022-12-27T06:10:38.971Z,1.70
2022-12-27T06:13:43.168Z,1.63
2022-12-27T06:16:45.683Z,2.15
2022-12-27T06:19:53.793Z,1.40
2022-12-27T06:23:00.207Z,0.80
2022-12-27T06:26:12.199Z,1.90
2022-12-27T06:29:15.003Z,0.90
2022-12-27T06:32:17.873Z,0.95
2022-12-27T06:35:20.815Z,0.97
2022-12-27T06:38:23.740Z,1.90
2022-12-27T06:41:26.627Z,1.08
2022-12-27T06:44:29.308Z,1.95
2022-12-27T06:47:32.307Z,1.10
2022-12-27T06:50:36.052Z,1.10
2022-12-27T06:53:38.494Z,1.00
2022-12-27T06:56:41.144Z,0.65
2022-12-27T06:59:44.058Z,1.00
2022-12-27T07:02:49.071Z,0.85
2022-12-27T07:05:51.552Z,0.67
2022-12-27T07:08:55.152Z,0.80
2022-12-27T07:11:57.562Z,0.47
2022-12-27T07:15:00.028Z,1.13
2022-12-27T07:18:02.521Z,1.00
2022-12-27T07:21:06.582Z,0.70
2022-12-27T07:24:09.203Z,1.30
2022-12-27T07:27:11.599Z,0.70
2022-12-27T07:30:14.222Z,1.65
2022-12-27T07:33:16.736Z,1.23
2022-12-27T07:36:22.251Z,0.73
2022-12-27T07:39:24.701Z,1.50
2022-12-27T07:42:28.782Z,0.68
2022-12-27T07:45:32.133Z,1.20
2022-12-27T07:48:35.021Z,0.98
2022-12-27T07:51:37.672Z,2.20
2022-12-27T07:54:41.814Z,0.83
2022-12-27T07:57:44.240Z,0.80
2022-12-27T08:00:48.251Z,1.30
2022-12-27T08:03:51.160Z,1.23
2022-12-27T08:06:56.668Z,1.33
2022-12-27T08:09:59.567Z,1.40
2022-12-27T08:13:01.971Z,1.38
2022-12-27T08:16:05.184Z,0.90
2022-12-27T08:19:08.881Z,1.10
2022-12-27T08:22:11.359Z,1.47
2022-12-27T08:25:13.734Z,0.60
2022-12-27T08:28:17.850Z,1.05
2022-12-27T08:31:20.266Z,1.38
2022-12-27T08:34:22.766Z,1.13
2022-12-27T08:37:25.275Z,2.10
2022-12-27T08:40:27.781Z,0.97
2022-12-27T08:43:30.578Z,1.25
2022-12-27T08:46:33.444Z,0.60
2022-12-27T08:49:35.986Z,0.60
2022-12-27T08:52:38.370Z,1.73
2022-12-27T08:55:40.829Z,0.60
2022-12-27T08:58:43.652Z,0.63
2022-12-27T09:01:46.420Z,0.68
2022-12-27T09:04:49.313Z,3.17
2022-12-27T09:07:52.335Z,0.77
2022-12-27T09:10:54.928Z,0.63
2022-12-27T09:14:00.064Z,1.10
2022-12-27T09:17:02.569Z,0.52
2022-12-27T09:20:06.291Z,0.60
2022-12-27T09:23:08.814Z,2.27
2022-12-27T09:26:17.675Z,0.70
2022-12-27T09:29:20.353Z,0.40
2022-12-27T09:32:27.442Z,0.73
2022-12-27T09:35:30.203Z,0.70
2022-12-27T09:38:34.984Z,1.27
2022-12-27T09:45:16.217Z,0.70
2022-12-27T09:48:34.013Z,1.15
2022-12-27T09:52:02.628Z,0.90
2022-12-27T09:55:17.822Z,0.60
2022-12-27T09:58:33.914Z,0.80
2022-12-27T10:01:40.669Z,1.35
2022-12-27T10:05:18.451Z,0.75
2022-12-27T10:08:12.930Z,0.70
2022-12-27T10:11:36.786Z,0.90
2022-12-27T10:15:06.860Z,0.90
2022-12-27T10:18:12.568Z,0.60
2022-12-27T10:21:26.783Z,0.93
2022-12-27T10:24:51.953Z,0.80
2022-12-27T10:28:00.040Z,2.00
2022-12-27T10:31:04.057Z,1.70
2022-12-27T10:34:10.699Z,1.85
2022-12-27T10:37:16.587Z,0.93
2022-12-27T10:40:46.424Z,1.85
2022-12-27T10:43:53.761Z,1.17
2022-12-27T10:46:57.237Z,1.53
2022-12-27T10:50:11.675Z,1.70
2022-12-27T10:53:34.764Z,1.10
2022-12-27T10:56:41.469Z,1.60
2022-12-27T10:59:44.579Z,0.90
2022-12-27T11:02:54.648Z,0.67
2022-12-27T11:06:03.182Z,1.58
2022-12-27T11:09:25.885Z,2.35
2022-12-27T11:12:33.008Z,1.65
2022-12-27T11:15:38.006Z,1.30
2022-12-27T11:18:46.150Z,1.83
2022-12-27T11:21:49.803Z,1.45
2022-12-27T11:24:55.981Z,2.40
2022-12-27T11:28:03.137Z,1.10
2022-12-27T11:31:18.089Z,1.10
2022-12-27T11:34:36.767Z,1.57
2022-12-27T11:37:40.050Z,2.10
2022-12-27T11:40:42.818Z,1.33
2022-12-27T11:43:48.389Z,1.13
2022-12-27T11:47:03.938Z,1.87
2022-12-27T11:50:28.253Z,2.50
2022-12-27T11:54:02.430Z,2.15
2022-12-27T11:57:04.879Z,1.50
2022-12-27T12:00:24.752Z,2.35
2022-12-27T12:03:50.108Z,1.93
2022-12-27T12:06:59.303Z,2.67
2022-12-27T12:10:11.187Z,1.75
2022-12-27T12:13:13.566Z,2.72
2022-12-27T12:16:45.072Z,0.73
2022-12-27T12:20:04.088Z,2.03
2022-12-27T12:23:12.341Z,1.57
2022-12-27T12:26:22.293Z,1.00
2022-12-27T12:30:03.673Z,1.35
2022-12-27T12:33:21.482Z,1.48
2022-12-27T12:36:41.586Z,2.20
2022-12-27T12:40:26.508Z,1.90
2022-12-27T12:43:59.639Z,1.50
2022-12-27T12:47:37.339Z,1.65
2022-12-27T12:51:24.227Z,1.55
2022-12-27T12:55:04.099Z,1.27
2022-12-27T12:58:27.909Z,1.87
2022-12-27T13:01:56.380Z,1.42
2022-12-27T13:05:11.278Z,3.45
2022-12-27T13:08:23.397Z,1.17
2022-12-27T13:11:37.902Z,1.30
2022-12-27T13:15:06.691Z,1.77
2022-12-27T13:18:30.600Z,1.85
2022-12-27T13:21:47.914Z,1.20
2022-12-27T13:25:18.066Z,1.13
2022-12-27T13:28:31.362Z,1.27
2022-12-27T13:31:49.126Z,1.23
2022-12-27T13:35:21.719Z,1.65
2022-12-27T13:39:11.787Z,1.63
2022-12-27T13:42:44.813Z,1.60
2022-12-27T13:46:05.735Z,1.37
2022-12-27T13:49:47.931Z,1.53
2022-12-27T13:53:00.165Z,1.58
2022-12-27T13:56:52.828Z,3.20
2022-12-27T13:59:53.024Z,2.53
2022-12-27T14:03:29.514Z,0.90
2022-12-27T14:07:04.091Z,2.20
2022-12-27T14:10:28.475Z,1.17
2022-12-27T14:13:41.624Z,2.15
2022-12-27T14:17:18.115Z,1.85
2022-12-27T14:20:54.861Z,4.87
2022-12-27T14:24:40.839Z,3.73
2022-12-27T14:28:03.204Z,1.90
2022-12-27T14:31:22.541Z,1.60
2022-12-27T14:34:58.927Z,2.85
2022-12-27T14:38:20.670Z,2.00
2022-12-27T14:42:00.253Z,1.43
2022-12-27T14:45:24.583Z,4.00
2022-12-27T14:48:39.315Z,1.80
2022-12-27T14:52:00.050Z,1.55
2022-12-27T14:55:31.860Z,1.70
2022-12-27T14:58:51.639Z,2.50
2022-12-27T15:02:06.659Z,2.50
2022-12-27T15:05:46.355Z,3.10
2022-12-27T15:09:27.575Z,2.22
2022-12-27T15:12:58.362Z,2.63
2022-12-27T15:16:28.107Z,2.07
2022-12-27T15:19:53.025Z,3.20
2022-12-27T15:23:10.681Z,3.00
2022-12-27T15:26:40.833Z,1.75
2022-12-27T15:29:49.704Z,3.80
2022-12-27T15:33:06.805Z,2.80
2022-12-27T15:36:17.926Z,1.40
2022-12-27T15:39:38.358Z,2.03
2022-12-27T15:42:56.390Z,1.65
2022-12-27T15:46:14.112Z,1.30
2022-12-27T15:49:55.449Z,2.03
2022-12-27T15:53:30.372Z,1.23
2022-12-27T15:56:57.171Z,1.80
2022-12-27T16:00:33.380Z,2.47
2022-12-27T16:03:39.271Z,1.13
2022-12-27T16:06:48.364Z,1.70
2022-12-27T16:09:50.955Z,2.35
2022-12-27T16:12:55.054Z,2.08
2022-12-27T16:15:58.053Z,1.60
2022-12-27T16:19:28.367Z,3.53
2022-12-27T16:22:35.672Z,2.37
2022-12-27T16:25:41.137Z,1.92
2022-12-27T16:28:59.676Z,0.90
2022-12-27T16:32:23.639Z,2.65
2022-12-27T16:35:26.153Z,1.50
2022-12-27T16:38:30.636Z,2.80
2022-12-27T16:41:54.941Z,1.45
2022-12-27T16:45:22.628Z,1.40
2022-12-27T16:49:01.915Z,2.38
2022-12-27T16:52:27.314Z,2.77
2022-12-27T16:55:58.105Z,2.97
2022-12-27T16:59:00.953Z,1.67
2022-12-27T17:02:03.709Z,3.20
2022-12-27T17:05:15.779Z,1.58
2022-12-27T17:08:21.136Z,3.37
2022-12-27T17:11:32.685Z,1.93
2022-12-27T17:14:38.227Z,2.83
2022-12-27T17:17:45.539Z,2.33
2022-12-27T17:21:02.167Z,1.73
2022-12-27T17:24:15.591Z,4.20
2022-12-27T17:27:48.972Z,4.07
2022-12-27T17:31:22.555Z,1.77
2022-12-27T17:34:41.139Z,5.40
2022-12-27T17:38:14.682Z,3.60
2022-12-27T17:41:47.655Z,7.57
2022-12-27T17:44:55.980Z,4.77
2022-12-27T17:48:25.393Z,4.65
2022-12-27T17:51:31.354Z,3.47
2022-12-27T17:54:52.726Z,4.80
2022-12-27T17:57:56.604Z,4.80
2022-12-27T18:01:02.297Z,4.85
2022-12-27T18:04:06.656Z,7.10
2022-12-27T18:07:13.748Z,6.28
2022-12-27T18:10:27.704Z,6.27
2022-12-27T18:13:34.122Z,5.90
2022-12-27T18:16:39.963Z,7.15
2022-12-27T18:19:42.891Z,7.80
2022-12-27T18:22:45.595Z,5.45
2022-12-27T18:25:47.955Z,8.37
2022-12-27T18:28:50.852Z,10.27
2022-12-27T18:31:55.764Z,6.68
2022-12-27T18:35:03.063Z,7.93
2022-12-27T18:38:08.285Z,8.70
2022-12-27T18:41:15.260Z,7.23
2022-12-27T18:44:26.847Z,7.67
2022-12-27T18:47:35.540Z,8.98
2022-12-27T18:50:49.263Z,8.20
2022-12-27T18:53:51.826Z,10.50
2022-12-27T18:56:58.854Z,8.83
2022-12-27T19:00:25.197Z,11.75
2022-12-27T19:03:28.956Z,9.23
2022-12-27T19:06:31.980Z,9.90
2022-12-27T19:09:39.237Z,16.33
2022-12-27T19:12:43.925Z,9.07
2022-12-27T19:15:47.079Z,9.65
2022-12-27T19:18:56.375Z,9.00
2022-12-27T19:21:59.130Z,8.20
2022-12-27T19:25:06.716Z,9.57
2022-12-27T19:28:09.452Z,12.70
2022-12-27T19:31:22.034Z,14.07
2022-12-27T19:34:28.921Z,9.52
2022-12-27T19:37:33.522Z,14.03
2022-12-27T19:40:36.057Z,12.88
2022-12-27T19:43:42.582Z,14.20
2022-12-27T19:46:45.673Z,13.98
2022-12-27T19:49:48.462Z,14.20
2022-12-27T19:52:51.179Z,12.23
2022-12-27T19:55:53.646Z,14.45
2022-12-27T19:58:56.368Z,32.95
2022-12-27T20:01:59.298Z,22.83
2022-12-27T20:05:01.967Z,18.30
2022-12-27T20:08:06.337Z,21.05
2022-12-27T20:11:14.945Z,18.90
2022-12-27T20:14:18.074Z,27.07
2022-12-27T20:17:20.550Z,28.20
2022-12-27T20:20:23.091Z,34.40
2022-12-27T20:23:25.972Z,28.35
2022-12-27T20:26:29.411Z,26.23
2022-12-27T20:29:32.126Z,25.83
2022-12-27T20:32:34.702Z,29.60
2022-12-27T20:35:37.678Z,25.67
2022-12-27T20:38:40.425Z,32.60
2022-12-27T20:41:42.853Z,33.13
2022-12-27T20:44:45.335Z,34.70
2022-12-27T20:47:48.271Z,39.90
2022-12-27T20:50:51.347Z,33.37
2022-12-27T20:53:56.805Z,37.75
2022-12-27T20:56:59.342Z,44.50
2022-12-27T21:00:03.899Z,36.97
2022-12-27T21:03:06.649Z,31.53
2022-12-27T21:06:15.997Z,28.17
2022-12-27T21:09:18.681Z,32.97
2022-12-27T21:12:21.134Z,32.27
2022-12-27T21:15:24.176Z,31.13
2022-12-27T21:18:27.049Z,30.67
2022-12-27T21:21:29.944Z,32.65
2022-12-27T21:24:33.411Z,34.67
2022-12-27T21:27:35.999Z,35.25
2022-12-27T21:30:38.486Z,33.20
2022-12-27T21:33:41.531Z,41.47
2022-12-27T21:36:44.347Z,40.20
2022-12-27T21:39:47.414Z,37.88
2022-12-27T21:42:50.382Z,40.55
2022-12-27T21:45:53.023Z,40.65
2022-12-27T21:49:05.542Z,39.53
2022-12-27T21:52:08.421Z,36.38
2022-12-27T21:55:10.863Z,43.10
2022-12-27T21:58:13.496Z,43.53
2022-12-27T22:01:21.511Z,46.90
2022-12-27T22:04:24.140Z,44.92
2022-12-27T22:07:26.811Z,42.42
2022-12-27T22:10:29.287Z,44.42
2022-12-27T22:13:33.025Z,33.80
2022-12-27T22:16:38.158Z,34.63
2022-12-27T22:19:40.564Z,38.88
2022-12-27T22:22:43.174Z,43.63
2022-12-27T22:25:45.712Z,44.87
2022-12-27T22:28:48.730Z,46.20
2022-12-27T22:31:51.186Z,43.65
2022-12-27T22:34:53.624Z,51.10
2022-12-27T22:37:56.049Z,44.08
2022-12-27T22:41:08.408Z,42.80
2022-12-27T22:44:13.471Z,43.25
2022-12-27T22:47:26.254Z,40.53
2022-12-27T22:50:29.757Z,39.35
2022-12-27T22:53:32.942Z,34.22
2022-12-27T22:56:40.463Z,35.50
2022-12-27T22:59:43.515Z,36.93
2022-12-27T23:02:47.308Z,32.83
2022-12-27T23:05:57.946Z,37.65
2022-12-27T23:09:01.267Z,32.60
2022-12-27T23:12:04.319Z,35.30
2022-12-27T23:15:07.485Z,32.17
2022-12-27T23:18:09.924Z,33.80
2022-12-27T23:21:21.381Z,30.98
2022-12-27T23:24:26.692Z,26.50
2022-12-27T23:27:29.407Z,28.52
2022-12-27T23:30:32.053Z,29.70
2022-12-27T23:33:34.794Z,28.95
2022-12-27T23:36:37.285Z,25.60
2022-12-27T23:39:39.675Z,28.35
2022-12-27T23:42:42.069Z,29.38
2022-12-27T23:45:44.546Z,30.77
2022-12-27T23:48:47.472Z,29.97
2022-12-27T23:51:51.784Z,31.27
2022-12-27T23:54:54.800Z,27.50
2022-12-27T23:57:58.390Z,32.30
